createdAt,value
2023-01-29T00:01:23.968Z,30.77
2023-01-29T00:03:52.055Z,29.97
2023-01-29T00:06:19.265Z,30.07
2023-01-29T00:08:49.951Z,28.93
2023-01-29T00:11:17.211Z,29.00
2023-01-29T00:13:44.251Z,28.20
2023-01-29T00:16:11.150Z,28.00
2023-01-29T00:18:40.061Z,28.73
2023-01-29T00:21:12.024Z,29.07
2023-01-29T00:23:39.095Z,29.47
2023-01-29T00:26:06.488Z,29.80
2023-01-29T00:28:33.703Z,28.27
2023-01-29T00:31:11.451Z,29.90
2023-01-29T00:33:39.771Z,31.23
2023-01-29T00:36:10.505Z,32.20
2023-01-29T00:38:38.402Z,52.70
2023-01-29T00:41:28.424Z,39.60
2023-01-29T00:44:14.218Z,34.50
2023-01-29T00:46:41.179Z,36.73
2023-01-29T00:49:08.604Z,36.40
2023-01-29T00:51:36.724Z,36.87
2023-01-29T00:54:06.868Z,36.20
2023-01-29T00:56:37.960Z,35.30
2023-01-29T00:59:05.090Z,36.00
2023-01-29T01:01:50.651Z,31.57
2023-01-29T01:04:17.712Z,31.00
2023-01-29T01:06:44.666Z,32.27
2023-01-29T01:09:29.902Z,32.30
2023-01-29T01:11:56.794Z,33.17
2023-01-29T01:14:23.759Z,33.20
2023-01-29T01:16:50.978Z,34.13
2023-01-29T01:19:18.047Z,34.37
2023-01-29T01:21:48.135Z,32.13
2023-01-29T01:24:15.443Z,30.17
2023-01-29T01:26:42.362Z,32.37
2023-01-29T01:29:09.271Z,31.63
2023-01-29T01:31:36.323Z,31.30
2023-01-29T01:34:03.520Z,30.77
2023-01-29T01:36:32.370Z,29.93
2023-01-29T01:38:59.488Z,31.33
2023-01-29T01:41:26.592Z,32.07
2023-01-29T01:43:59.243Z,32.03
2023-01-29T01:46:29.914Z,30.50
2023-01-29T01:49:07.736Z,29.13
2023-01-29T01:51:40.449Z,30.20
2023-01-29T01:54:11.475Z,30.17
2023-01-29T01:56:46.570Z,29.30
2023-01-29T01:59:17.188Z,29.87
2023-01-29T02:01:51.079Z,29.27
2023-01-29T02:04:42.680Z,28.33
2023-01-29T02:07:31.728Z,30.20
2023-01-29T02:10:02.222Z,29.27
2023-01-29T02:12:33.014Z,30.90
2023-01-29T02:15:00.434Z,31.70
2023-01-29T02:17:30.140Z,32.20
2023-01-29T02:20:26.718Z,32.60
2023-01-29T02:22:55.388Z,32.73
2023-01-29T02:25:42.602Z,32.77
2023-01-29T02:28:24.233Z,33.10
2023-01-29T02:30:58.447Z,30.57
2023-01-29T02:33:40.809Z,30.20
2023-01-29T02:36:24.613Z,32.63
2023-01-29T02:39:16.481Z,31.50
2023-01-29T02:41:47.051Z,29.60
2023-01-29T02:44:23.543Z,31.47
2023-01-29T02:47:09.219Z,33.07
2023-01-29T02:50:14.882Z,33.07
2023-01-29T02:52:59.496Z,30.20
2023-01-29T02:55:37.314Z,29.87
2023-01-29T02:58:17.461Z,30.83
2023-01-29T03:00:47.626Z,31.83
2023-01-29T03:03:21.418Z,30.97
2023-01-29T03:06:02.579Z,31.93
2023-01-29T03:08:50.308Z,31.47
2023-01-29T03:11:18.129Z,31.83
2023-01-29T03:13:57.263Z,32.43
2023-01-29T03:16:45.708Z,30.40
2023-01-29T03:19:27.425Z,30.30
2023-01-29T03:22:02.042Z,32.07
2023-01-29T03:25:00.432Z,32.17
2023-01-29T03:27:52.031Z,30.00
2023-01-29T03:30:38.490Z,30.43
2023-01-29T03:33:35.717Z,30.63
2023-01-29T03:36:10.610Z,32.00
2023-01-29T03:38:37.772Z,31.90
2023-01-29T03:41:28.547Z,31.73
2023-01-29T03:44:26.908Z,31.43
2023-01-29T03:47:16.615Z,32.57
2023-01-29T03:50:02.010Z,32.57
2023-01-29T03:52:59.488Z,31.37
2023-01-29T03:55:38.237Z,31.60
2023-01-29T03:58:27.941Z,31.90
2023-01-29T04:01:01.316Z,32.33
2023-01-29T04:03:37.949Z,32.80
2023-01-29T04:06:22.271Z,30.73
2023-01-29T04:09:12.117Z,30.57
2023-01-29T04:11:47.786Z,30.77
2023-01-29T04:14:16.757Z,31.47
2023-01-29T04:16:48.733Z,31.20
2023-01-29T04:19:36.448Z,33.00
2023-01-29T04:22:20.373Z,36.77
2023-01-29T04:24:48.461Z,34.10
2023-01-29T04:27:39.810Z,34.27
2023-01-29T04:30:31.139Z,31.60
2023-01-29T04:33:12.259Z,32.87
2023-01-29T04:36:07.436Z,31.40
2023-01-29T04:38:49.650Z,31.20
2023-01-29T04:41:54.154Z,32.50
2023-01-29T04:44:27.104Z,31.07
2023-01-29T04:47:14.366Z,33.27
2023-01-29T04:49:45.944Z,32.77
2023-01-29T04:52:17.370Z,30.47
2023-01-29T04:55:07.839Z,31.10
2023-01-29T04:58:03.387Z,31.60
2023-01-29T05:00:37.972Z,32.47
2023-01-29T05:03:09.666Z,33.33
2023-01-29T05:05:37.194Z,32.87
2023-01-29T05:08:05.280Z,33.70
2023-01-29T05:10:33.463Z,33.20
2023-01-29T05:13:02.619Z,34.20
2023-01-29T05:15:38.295Z,33.77
2023-01-29T05:18:08.933Z,30.30
2023-01-29T05:20:41.517Z,32.30
2023-01-29T05:23:21.175Z,34.43
2023-01-29T05:25:50.208Z,33.47
2023-01-29T05:28:17.399Z,33.67
2023-01-29T05:30:52.835Z,32.80
2023-01-29T05:33:29.279Z,33.97
2023-01-29T05:35:58.676Z,31.93
2023-01-29T05:38:25.766Z,33.60
2023-01-29T05:40:52.659Z,33.27
2023-01-29T05:43:24.701Z,35.50
2023-01-29T05:45:57.259Z,34.63
2023-01-29T05:48:25.118Z,33.20
2023-01-29T05:50:52.131Z,34.87
2023-01-29T05:53:19.200Z,35.00
2023-01-29T05:55:49.466Z,33.00
2023-01-29T05:58:16.459Z,34.83
2023-01-29T06:00:43.398Z,35.10
2023-01-29T06:03:10.460Z,32.97
2023-01-29T06:05:40.574Z,34.90
2023-01-29T06:08:08.440Z,35.83
2023-01-29T06:10:35.474Z,35.23
2023-01-29T06:13:02.708Z,34.40
2023-01-29T06:15:29.645Z,35.90
2023-01-29T06:17:57.431Z,36.30
2023-01-29T06:20:24.977Z,35.33
2023-01-29T06:22:51.869Z,34.63
2023-01-29T06:25:18.811Z,37.20
2023-01-29T06:27:45.722Z,36.53
2023-01-29T06:30:13.019Z,35.17
2023-01-29T06:32:39.942Z,35.67
2023-01-29T06:35:07.757Z,35.80
2023-01-29T06:37:34.605Z,37.40
2023-01-29T06:40:01.598Z,36.30
2023-01-29T06:42:28.668Z,35.87
2023-01-29T06:44:56.452Z,37.43
2023-01-29T06:47:27.850Z,39.20
2023-01-29T06:49:55.052Z,35.43
2023-01-29T06:52:22.061Z,38.17
2023-01-29T06:54:49.102Z,37.40
2023-01-29T06:57:16.077Z,37.87
2023-01-29T06:59:42.946Z,38.50
2023-01-29T07:02:09.990Z,36.60
2023-01-29T07:04:37.870Z,37.47
2023-01-29T07:07:05.481Z,37.50
2023-01-29T07:09:32.406Z,35.50
2023-01-29T07:11:59.369Z,38.13
2023-01-29T07:14:26.285Z,36.43
2023-01-29T07:16:53.248Z,35.10
2023-01-29T07:19:20.156Z,41.20
2023-01-29T07:21:47.011Z,37.10
2023-01-29T07:24:14.089Z,35.53
2023-01-29T07:26:41.227Z,35.20
2023-01-29T07:29:08.351Z,34.90
2023-01-29T07:31:35.530Z,35.30
2023-01-29T07:34:02.635Z,37.57
2023-01-29T07:36:29.824Z,35.40
2023-01-29T07:38:56.749Z,34.17
2023-01-29T07:41:23.625Z,38.57
2023-01-29T07:43:51.694Z,37.20
2023-01-29T07:46:18.643Z,35.43
2023-01-29T07:48:45.659Z,36.70
2023-01-29T07:51:12.549Z,40.60
2023-01-29T07:53:39.491Z,38.97
2023-01-29T07:56:06.602Z,38.37
2023-01-29T07:58:35.712Z,37.77
2023-01-29T08:01:07.823Z,37.47
2023-01-29T08:03:34.987Z,34.90
2023-01-29T08:06:03.016Z,33.60
2023-01-29T08:08:30.075Z,33.17
2023-01-29T08:10:57.179Z,35.50
2023-01-29T08:13:24.039Z,37.43
2023-01-29T08:15:50.944Z,36.20
2023-01-29T08:18:17.902Z,41.93
2023-01-29T08:20:44.872Z,48.80
2023-01-29T08:23:16.647Z,35.80
2023-01-29T08:25:43.720Z,34.20
2023-01-29T08:28:11.769Z,36.73
2023-01-29T08:30:38.933Z,33.97
2023-01-29T08:33:06.069Z,37.13
2023-01-29T08:35:32.973Z,42.27
2023-01-29T08:38:03.319Z,33.47
2023-01-29T08:40:32.493Z,36.03
2023-01-29T08:43:05.482Z,33.80
2023-01-29T08:45:35.295Z,32.47
2023-01-29T08:48:02.483Z,33.57
2023-01-29T08:50:34.415Z,34.27
2023-01-29T08:53:04.405Z,34.67
2023-01-29T08:55:31.335Z,31.03
2023-01-29T08:57:58.276Z,33.73
2023-01-29T09:00:25.248Z,32.07
2023-01-29T09:02:52.197Z,32.63
2023-01-29T09:05:19.593Z,30.23
2023-01-29T09:07:46.660Z,33.23
2023-01-29T09:10:13.824Z,36.43
2023-01-29T09:12:40.732Z,31.93
2023-01-29T09:15:08.217Z,32.37
2023-01-29T09:17:35.400Z,33.23
2023-01-29T09:20:02.595Z,32.47
2023-01-29T09:22:29.444Z,32.90
2023-01-29T09:24:56.385Z,30.90
2023-01-29T09:27:23.585Z,28.30
2023-01-29T09:29:50.580Z,30.90
2023-01-29T09:32:49.701Z,30.10
2023-01-29T09:35:07.082Z,30.97
2023-01-29T09:37:34.019Z,31.90
2023-01-29T09:40:01.025Z,31.97
2023-01-29T09:42:30.051Z,31.23
2023-01-29T09:45:15.079Z,30.57
2023-01-29T09:47:42.545Z,30.27
2023-01-29T09:50:24.049Z,30.40
2023-01-29T09:53:04.211Z,29.40
2023-01-29T09:55:40.997Z,28.23
2023-01-29T09:58:20.411Z,27.87
2023-01-29T10:00:58.040Z,28.63
2023-01-29T10:03:50.209Z,29.63
2023-01-29T10:06:42.214Z,27.80
2023-01-29T10:09:21.000Z,27.60
2023-01-29T10:12:09.422Z,28.63
2023-01-29T10:14:51.081Z,29.13
2023-01-29T10:17:45.687Z,27.97
2023-01-29T10:20:18.509Z,30.07
2023-01-29T10:22:52.752Z,30.07
2023-01-29T10:25:21.603Z,30.97
2023-01-29T10:27:56.398Z,27.40
2023-01-29T10:30:38.663Z,29.20
2023-01-29T10:33:09.769Z,29.70
2023-01-29T10:35:41.683Z,28.77
2023-01-29T10:38:27.785Z,28.47
2023-01-29T10:41:13.273Z,27.37
2023-01-29T10:44:08.089Z,27.63
2023-01-29T10:47:00.130Z,28.87
2023-01-29T10:49:32.908Z,25.50
2023-01-29T10:52:17.749Z,27.40
2023-01-29T10:55:00.924Z,28.23
2023-01-29T10:57:45.959Z,27.47
2023-01-29T11:00:24.988Z,26.90
2023-01-29T11:02:53.080Z,28.90
2023-01-29T11:05:31.133Z,27.53
2023-01-29T11:08:10.726Z,27.07
2023-01-29T11:10:47.975Z,25.87
2023-01-29T11:13:16.138Z,26.80
2023-01-29T11:15:43.648Z,27.53
2023-01-29T11:18:15.377Z,28.03
2023-01-29T11:20:46.534Z,53.47
2023-01-29T11:23:39.880Z,27.77
2023-01-29T11:26:10.955Z,31.97
2023-01-29T11:28:42.154Z,28.93
2023-01-29T11:31:35.672Z,27.87
2023-01-29T11:34:23.705Z,31.47
2023-01-29T11:37:16.984Z,28.90
2023-01-29T11:39:47.158Z,29.70
2023-01-29T11:42:22.144Z,28.87
2023-01-29T11:44:49.602Z,27.63
2023-01-29T11:47:24.201Z,30.33
2023-01-29T11:49:55.181Z,30.30
2023-01-29T11:52:33.960Z,30.03
2023-01-29T11:55:05.145Z,29.53
2023-01-29T11:57:37.210Z,30.20
2023-01-29T12:00:24.805Z,29.40
2023-01-29T12:02:57.846Z,29.17
2023-01-29T12:05:26.570Z,28.47
2023-01-29T12:07:56.699Z,28.07
2023-01-29T12:10:35.759Z,36.33
2023-01-29T12:13:19.862Z,27.97
2023-01-29T12:15:48.111Z,29.67
2023-01-29T12:18:39.898Z,30.27
2023-01-29T12:21:12.829Z,30.33
2023-01-29T12:23:54.129Z,31.13
2023-01-29T12:26:36.093Z,28.73
2023-01-29T12:29:09.186Z,28.57
2023-01-29T12:31:59.469Z,30.07
2023-01-29T12:35:10.953Z,28.97
2023-01-29T12:38:34.113Z,27.47
2023-01-29T12:41:06.275Z,26.60
2023-01-29T12:43:52.293Z,29.37
2023-01-29T12:46:27.865Z,29.37
2023-01-29T12:48:57.786Z,26.97
2023-01-29T12:51:31.241Z,28.83
2023-01-29T12:54:07.400Z,26.80
2023-01-29T12:56:47.179Z,26.90
2023-01-29T12:59:49.216Z,28.43
2023-01-29T13:02:38.554Z,27.47
2023-01-29T13:05:23.380Z,25.00
2023-01-29T13:08:16.491Z,25.43
2023-01-29T13:10:47.158Z,23.70
2023-01-29T13:13:24.496Z,23.00
2023-01-29T13:15:52.416Z,23.93
2023-01-29T13:18:38.256Z,23.87
2023-01-29T13:21:05.693Z,25.37
2023-01-29T13:23:37.452Z,24.67
2023-01-29T13:26:05.793Z,25.57
2023-01-29T13:28:33.305Z,26.33
2023-01-29T13:31:28.083Z,26.57
2023-01-29T13:33:55.145Z,25.23
2023-01-29T13:36:30.245Z,24.90
2023-01-29T13:39:09.003Z,24.93
2023-01-29T13:41:42.558Z,26.93
2023-01-29T13:44:32.454Z,26.00
2023-01-29T13:47:05.197Z,24.30
2023-01-29T13:49:41.085Z,25.23
2023-01-29T13:52:26.429Z,25.70
2023-01-29T13:55:00.381Z,24.67
2023-01-29T13:57:39.540Z,23.70
2023-01-29T14:00:31.101Z,26.63
2023-01-29T14:03:01.115Z,27.43
2023-01-29T14:05:31.163Z,26.60
2023-01-29T14:08:02.343Z,30.10
2023-01-29T14:10:34.393Z,26.33
2023-01-29T14:13:04.371Z,27.53
2023-01-29T14:15:36.997Z,25.50
2023-01-29T14:18:19.904Z,27.10
2023-01-29T14:21:05.989Z,26.00
2023-01-29T14:23:57.253Z,25.93
2023-01-29T14:26:45.424Z,26.57
2023-01-29T14:29:14.512Z,24.13
2023-01-29T14:31:47.615Z,24.70
2023-01-29T14:34:20.625Z,25.53
2023-01-29T14:36:55.162Z,22.07
2023-01-29T14:39:29.632Z,23.40
2023-01-29T14:41:58.016Z,22.27
2023-01-29T14:44:46.835Z,22.10
2023-01-29T14:47:25.571Z,22.27
2023-01-29T14:49:56.998Z,21.10
2023-01-29T14:52:44.099Z,22.13
2023-01-29T14:55:39.502Z,20.77
2023-01-29T14:58:11.479Z,20.50
2023-01-29T15:00:43.538Z,20.17
2023-01-29T15:03:25.861Z,21.20
2023-01-29T15:05:54.111Z,25.00
2023-01-29T15:08:35.732Z,22.60
2023-01-29T15:11:27.330Z,23.77
2023-01-29T15:14:24.058Z,23.40
2023-01-29T15:17:06.047Z,22.17
2023-01-29T15:19:36.986Z,25.07
2023-01-29T15:22:08.998Z,19.70
2023-01-29T15:24:37.802Z,22.83
2023-01-29T15:27:09.899Z,22.13
2023-01-29T15:29:38.555Z,21.37
2023-01-29T15:32:07.544Z,21.63
2023-01-29T15:34:35.476Z,20.83
2023-01-29T15:37:02.446Z,21.23
2023-01-29T15:39:31.036Z,20.70
2023-01-29T15:42:41.383Z,23.97
2023-01-29T15:45:32.419Z,19.97
2023-01-29T15:48:13.475Z,19.73
2023-01-29T15:50:42.597Z,22.20
2023-01-29T15:53:17.906Z,20.80
2023-01-29T15:55:46.127Z,22.23
2023-01-29T15:58:20.733Z,22.27
2023-01-29T16:00:53.699Z,20.47
2023-01-29T16:03:23.925Z,20.00
2023-01-29T16:05:52.552Z,19.80
2023-01-29T16:08:21.910Z,20.57
2023-01-29T16:10:58.553Z,19.47
2023-01-29T16:13:29.170Z,19.70
2023-01-29T16:16:00.593Z,19.33
2023-01-29T16:18:39.529Z,19.63
2023-01-29T16:21:17.139Z,25.23
2023-01-29T16:23:58.312Z,48.00
2023-01-29T16:26:34.252Z,25.97
2023-01-29T16:29:10.705Z,41.87
2023-01-29T16:31:39.075Z,22.00
2023-01-29T16:34:14.694Z,19.50
2023-01-29T16:36:47.041Z,21.67
2023-01-29T16:39:21.988Z,20.57
2023-01-29T16:42:12.225Z,18.13
2023-01-29T16:44:39.670Z,24.10
2023-01-29T16:47:19.948Z,33.43
2023-01-29T16:49:53.735Z,23.73
2023-01-29T16:52:32.711Z,22.30
2023-01-29T16:55:21.592Z,24.80
2023-01-29T16:57:56.001Z,30.63
2023-01-29T17:00:28.463Z,27.33
2023-01-29T17:03:02.833Z,22.43
2023-01-29T17:05:33.530Z,23.60
2023-01-29T17:08:00.700Z,19.03
2023-01-29T17:10:29.677Z,21.53
2023-01-29T17:13:05.463Z,20.67
2023-01-29T17:15:34.328Z,21.87
2023-01-29T17:18:02.454Z,21.73
2023-01-29T17:20:30.422Z,20.90
2023-01-29T17:22:57.340Z,22.47
2023-01-29T17:25:24.480Z,23.13
2023-01-29T17:27:52.176Z,21.23
2023-01-29T17:30:33.881Z,24.40
2023-01-29T17:33:04.091Z,19.73
2023-01-29T17:35:30.972Z,19.83
2023-01-29T17:37:57.880Z,20.47
2023-01-29T17:40:43.056Z,19.07
2023-01-29T17:43:11.865Z,20.97
2023-01-29T17:45:39.837Z,20.77
2023-01-29T17:48:21.583Z,22.37
2023-01-29T17:50:53.902Z,20.70
2023-01-29T17:53:22.087Z,19.13
2023-01-29T17:55:49.838Z,17.53
2023-01-29T17:58:19.178Z,18.00
2023-01-29T18:00:47.064Z,18.60
2023-01-29T18:03:14.639Z,21.67
2023-01-29T18:05:43.414Z,20.23
2023-01-29T18:08:18.269Z,20.73
2023-01-29T18:10:46.577Z,20.50
2023-01-29T18:13:14.039Z,19.73
2023-01-29T18:15:41.249Z,19.33
2023-01-29T18:18:13.391Z,21.03
2023-01-29T18:20:40.765Z,22.90
2023-01-29T18:23:11.116Z,22.97
2023-01-29T18:25:38.472Z,20.60
2023-01-29T18:28:06.247Z,21.37
2023-01-29T18:30:33.629Z,23.40
2023-01-29T18:33:00.635Z,23.40
2023-01-29T18:35:28.751Z,20.83
2023-01-29T18:37:56.008Z,29.97
2023-01-29T18:40:23.014Z,24.53
2023-01-29T18:42:50.014Z,22.80
2023-01-29T18:45:17.389Z,24.27
2023-01-29T18:47:44.679Z,21.57
2023-01-29T18:50:12.451Z,20.67
2023-01-29T18:52:40.799Z,21.27
2023-01-29T18:55:09.733Z,23.70
2023-01-29T18:58:29.496Z,20.80
2023-01-29T19:00:26.099Z,19.20
2023-01-29T19:02:53.006Z,20.20
2023-01-29T19:05:22.842Z,20.23
2023-01-29T19:07:50.201Z,22.10
2023-01-29T19:10:17.268Z,25.50
2023-01-29T19:12:44.805Z,28.60
2023-01-29T19:15:12.161Z,27.03
2023-01-29T19:17:39.366Z,23.90
2023-01-29T19:20:07.107Z,21.90
2023-01-29T19:22:34.009Z,20.50
2023-01-29T19:25:00.965Z,22.57
2023-01-29T19:27:30.477Z,19.80
2023-01-29T19:29:59.461Z,19.27
2023-01-29T19:32:28.813Z,21.87
2023-01-29T19:34:57.714Z,21.60
2023-01-29T19:37:25.496Z,19.57
2023-01-29T19:39:53.630Z,19.47
2023-01-29T19:42:21.511Z,20.23
2023-01-29T19:44:49.058Z,21.63
2023-01-29T19:47:16.130Z,22.50
2023-01-29T19:49:43.170Z,20.77
2023-01-29T19:52:14.891Z,21.10
2023-01-29T19:54:48.855Z,19.97
2023-01-29T19:57:15.846Z,19.60
2023-01-29T19:59:45.598Z,19.47
2023-01-29T20:02:12.929Z,18.90
2023-01-29T20:04:39.905Z,19.47
2023-01-29T20:07:07.539Z,17.80
2023-01-29T20:09:34.428Z,19.10
2023-01-29T20:12:01.792Z,20.23
2023-01-29T20:14:28.756Z,19.17
2023-01-29T20:16:55.672Z,18.17
2023-01-29T20:19:22.544Z,20.63
2023-01-29T20:21:49.706Z,17.67
2023-01-29T20:24:16.944Z,19.23
2023-01-29T20:26:44.664Z,19.83
2023-01-29T20:29:12.356Z,20.77
2023-01-29T20:31:39.685Z,18.47
2023-01-29T20:34:06.900Z,18.50
2023-01-29T20:36:33.954Z,18.63
2023-01-29T20:39:00.916Z,18.10
2023-01-29T20:41:28.071Z,18.00
2023-01-29T20:43:55.124Z,20.90
2023-01-29T20:46:22.159Z,19.90
2023-01-29T20:48:53.099Z,18.17
2023-01-29T20:51:23.444Z,19.37
2023-01-29T20:53:50.390Z,17.50
2023-01-29T20:56:17.977Z,19.07
2023-01-29T20:58:46.810Z,19.03
2023-01-29T21:01:19.266Z,18.97
2023-01-29T21:03:48.044Z,16.27
2023-01-29T21:06:15.983Z,20.77
2023-01-29T21:08:42.947Z,19.13
2023-01-29T21:11:10.734Z,17.87
2023-01-29T21:13:38.379Z,18.27
2023-01-29T21:16:06.722Z,19.53
2023-01-29T21:18:36.960Z,19.53
2023-01-29T21:21:06.780Z,20.23
2023-01-29T21:23:34.123Z,14.97
2023-01-29T21:26:03.480Z,17.10
2023-01-29T21:28:30.436Z,16.67
2023-01-29T21:31:14.698Z,17.30
2023-01-29T21:33:42.371Z,17.27
2023-01-29T21:36:10.364Z,18.20
2023-01-29T21:38:37.653Z,17.40
2023-01-29T21:41:07.325Z,16.80
2023-01-29T21:43:34.421Z,18.73
2023-01-29T21:46:11.420Z,17.27
2023-01-29T21:48:39.624Z,17.03
2023-01-29T21:51:16.359Z,16.50
2023-01-29T21:53:44.852Z,18.07
2023-01-29T21:56:12.060Z,16.77
2023-01-29T21:58:39.093Z,17.20
2023-01-29T22:01:11.463Z,17.93
2023-01-29T22:03:54.452Z,19.90
2023-01-29T22:06:21.544Z,20.13
2023-01-29T22:08:49.380Z,17.13
2023-01-29T22:11:16.759Z,19.30
2023-01-29T22:13:43.783Z,19.13
2023-01-29T22:16:13.684Z,18.70
2023-01-29T22:18:40.728Z,19.77
2023-01-29T22:21:08.015Z,18.37
2023-01-29T22:23:35.060Z,19.77
2023-01-29T22:26:06.575Z,23.10
2023-01-29T22:28:35.416Z,18.77
2023-01-29T22:31:03.154Z,20.03
2023-01-29T22:33:30.374Z,20.53
2023-01-29T22:35:57.787Z,20.57
2023-01-29T22:38:24.992Z,20.53
2023-01-29T22:40:53.473Z,19.80
2023-01-29T22:43:21.027Z,20.63
2023-01-29T22:45:48.314Z,22.00
2023-01-29T22:48:15.436Z,22.73
2023-01-29T22:50:42.574Z,21.97
2023-01-29T22:53:09.684Z,21.23
2023-01-29T22:55:36.746Z,22.40
2023-01-29T22:58:03.766Z,21.50
2023-01-29T23:00:30.775Z,21.07
2023-01-29T23:02:57.788Z,22.40
2023-01-29T23:05:24.883Z,22.57
2023-01-29T23:07:51.769Z,22.20
2023-01-29T23:10:19.050Z,22.13
2023-01-29T23:12:46.181Z,21.90
2023-01-29T23:15:13.101Z,20.27
2023-01-29T23:17:40.082Z,21.27
2023-01-29T23:20:08.289Z,21.23
2023-01-29T23:22:35.449Z,22.23
2023-01-29T23:25:02.845Z,23.20
2023-01-29T23:27:29.833Z,22.73
2023-01-29T23:29:56.788Z,22.13
2023-01-29T23:32:23.751Z,23.70
2023-01-29T23:34:50.674Z,23.17
2023-01-29T23:37:17.637Z,24.60
2023-01-29T23:39:44.637Z,24.23
2023-01-29T23:42:11.563Z,29.70
2023-01-29T23:44:40.216Z,27.37
2023-01-29T23:47:07.973Z,23.10
2023-01-29T23:49:35.348Z,20.17
2023-01-29T23:52:02.513Z,23.40
2023-01-29T23:54:29.664Z,21.57
2023-01-29T23:56:56.594Z,23.07
2023-01-29T23:59:26.579Z,23.27
